createdAt,value
2022-08-24T00:00:59.835Z,19.13
2022-08-24T00:01:59.945Z,19.14
2022-08-24T00:02:59.959Z,19.18
2022-08-24T00:03:59.845Z,19.16
2022-08-24T00:04:59.776Z,19.21
2022-08-24T00:05:59.767Z,19.18
2022-08-24T00:06:59.756Z,19.10
2022-08-24T00:07:59.767Z,18.94
2022-08-24T00:08:59.738Z,18.82
2022-08-24T00:09:59.731Z,18.72
2022-08-24T00:10:59.733Z,18.63
2022-08-24T00:11:59.873Z,18.48
2022-08-24T00:12:59.703Z,18.21
2022-08-24T00:13:59.683Z,18.03
2022-08-24T00:14:59.674Z,18.03
2022-08-24T00:15:59.644Z,18.02
2022-08-24T00:16:59.697Z,18.00
2022-08-24T00:17:59.610Z,18.03
2022-08-24T00:18:59.632Z,18.17
2022-08-24T00:19:59.612Z,18.30
2022-08-24T00:20:59.568Z,18.39
2022-08-24T00:21:59.558Z,18.44
2022-08-24T00:22:59.582Z,18.51
2022-08-24T00:23:59.563Z,18.58
2022-08-24T00:24:59.601Z,18.58
2022-08-24T00:25:59.505Z,18.57
2022-08-24T00:26:59.489Z,18.55
2022-08-24T00:27:59.555Z,18.60
2022-08-24T00:29:01.375Z,18.66
2022-08-24T00:29:59.459Z,18.69
2022-08-24T00:30:59.451Z,18.65
2022-08-24T00:31:59.454Z,18.51
2022-08-24T00:32:59.485Z,18.39
2022-08-24T00:33:59.402Z,18.36
2022-08-24T00:34:59.615Z,18.39
2022-08-24T00:35:59.380Z,18.47
2022-08-24T00:36:59.360Z,18.52
2022-08-24T00:37:59.449Z,18.57
2022-08-24T00:38:59.351Z,18.57
2022-08-24T00:39:59.391Z,18.62
2022-08-24T00:40:59.338Z,18.66
2022-08-24T00:41:59.291Z,18.72
2022-08-24T00:42:59.345Z,18.73
2022-08-24T00:43:59.286Z,18.76
2022-08-24T00:44:59.255Z,18.81
2022-08-24T00:45:59.314Z,18.82
2022-08-24T00:46:59.225Z,18.85
2022-08-24T00:47:59.390Z,18.91
2022-08-24T00:48:59.234Z,18.99
2022-08-24T00:49:59.204Z,19.00
2022-08-24T00:50:59.198Z,18.94
2022-08-24T00:51:59.161Z,18.90
2022-08-24T00:52:59.172Z,18.91
2022-08-24T00:53:59.138Z,18.90
2022-08-24T00:54:59.120Z,18.88
2022-08-24T00:55:59.107Z,18.85
2022-08-24T00:56:59.100Z,18.82
2022-08-24T00:57:59.134Z,18.81
2022-08-24T00:58:59.092Z,18.81
2022-08-24T00:59:59.068Z,18.80
2022-08-24T01:00:59.108Z,18.81
2022-08-24T01:01:59.190Z,18.78
2022-08-24T01:02:59.056Z,18.75
2022-08-24T01:03:58.990Z,18.73
2022-08-24T01:04:58.995Z,18.69
2022-08-24T01:05:58.994Z,18.62
2022-08-24T01:06:58.982Z,18.62
2022-08-24T01:07:59.001Z,18.62
2022-08-24T01:08:58.966Z,18.62
2022-08-24T01:09:58.966Z,18.60
2022-08-24T01:10:58.908Z,18.54
2022-08-24T01:11:58.892Z,18.47
2022-08-24T01:13:00.558Z,18.36
2022-08-24T01:13:58.868Z,18.23
2022-08-24T01:14:58.847Z,18.12
2022-08-24T01:15:58.938Z,18.07
2022-08-24T01:16:58.826Z,18.08
2022-08-24T01:17:58.948Z,17.99
2022-08-24T01:18:58.799Z,17.87
2022-08-24T01:19:58.795Z,17.78
2022-08-24T01:20:58.776Z,17.72
2022-08-24T01:21:58.761Z,17.63
2022-08-24T01:22:58.774Z,17.54
2022-08-24T01:23:58.736Z,17.58
2022-08-24T01:24:58.719Z,17.58
2022-08-24T01:25:58.735Z,17.56
2022-08-24T01:26:58.700Z,17.66
2022-08-24T01:27:58.705Z,17.77
2022-08-24T01:28:58.681Z,17.87
2022-08-24T01:29:58.646Z,17.95
2022-08-24T01:30:58.723Z,17.99
2022-08-24T01:31:58.618Z,18.05
2022-08-24T01:32:58.599Z,18.12
2022-08-24T01:33:58.633Z,18.17
2022-08-24T01:34:58.582Z,18.14
2022-08-24T01:35:58.570Z,18.11
2022-08-24T01:36:58.559Z,18.11
2022-08-24T01:37:58.632Z,18.12
2022-08-24T01:38:58.546Z,18.14
2022-08-24T01:39:59.151Z,18.12
2022-08-24T01:40:58.498Z,18.14
2022-08-24T01:41:58.498Z,18.12
2022-08-24T01:42:58.484Z,18.10
2022-08-24T01:43:58.557Z,18.08
2022-08-24T01:44:58.453Z,18.08
2022-08-24T01:45:58.432Z,18.00
2022-08-24T01:46:58.524Z,17.97
2022-08-24T01:47:58.460Z,18.00
2022-08-24T01:48:58.399Z,18.03
2022-08-24T01:49:58.393Z,18.11
2022-08-24T01:50:58.386Z,18.14
2022-08-24T01:51:58.373Z,18.15
2022-08-24T01:53:06.026Z,18.20
2022-08-24T01:53:58.339Z,18.27
2022-08-24T01:54:58.333Z,18.35
2022-08-24T01:55:58.311Z,18.37
2022-08-24T01:56:58.300Z,18.39
2022-08-24T01:57:58.296Z,18.42
2022-08-24T01:58:58.267Z,18.48
2022-08-24T01:59:58.270Z,18.52
2022-08-24T02:00:58.235Z,18.58
2022-08-24T02:01:58.245Z,18.65
2022-08-24T02:02:58.383Z,18.69
2022-08-24T02:03:58.207Z,18.72
2022-08-24T02:04:58.181Z,18.76
2022-08-24T02:05:58.166Z,18.75
2022-08-24T02:06:58.143Z,18.72
2022-08-24T02:07:58.170Z,18.65
2022-08-24T02:08:58.149Z,18.65
2022-08-24T02:09:58.109Z,18.60
2022-08-24T02:10:58.101Z,18.55
2022-08-24T02:11:58.082Z,18.54
2022-08-24T02:12:58.455Z,18.52
2022-08-24T02:13:58.098Z,18.54
2022-08-24T02:14:58.047Z,18.54
2022-08-24T02:15:58.189Z,18.54
2022-08-24T02:16:58.015Z,18.57
2022-08-24T02:17:57.999Z,18.58
2022-08-24T02:18:57.984Z,18.57
2022-08-24T02:19:58.001Z,18.58
2022-08-24T02:20:57.989Z,18.60
2022-08-24T02:21:57.955Z,18.62
2022-08-24T02:22:57.997Z,18.60
2022-08-24T02:23:57.937Z,18.62
2022-08-24T02:24:57.937Z,18.57
2022-08-24T02:25:57.906Z,18.57
2022-08-24T02:26:57.882Z,18.55
2022-08-24T02:27:57.864Z,18.54
2022-08-24T02:28:59.218Z,18.47
2022-08-24T02:29:57.870Z,18.42
2022-08-24T02:30:57.883Z,18.39
2022-08-24T02:31:57.830Z,18.36
2022-08-24T02:32:57.871Z,18.36
2022-08-24T02:33:57.787Z,18.36
2022-08-24T02:34:57.781Z,18.33
2022-08-24T02:35:57.790Z,18.27
2022-08-24T02:36:57.759Z,18.11
2022-08-24T02:37:57.738Z,17.90
2022-08-24T02:38:57.701Z,17.58
2022-08-24T02:39:57.776Z,17.30
2022-08-24T02:40:57.706Z,17.15
2022-08-24T02:41:57.704Z,16.98
2022-08-24T02:42:57.763Z,16.82
2022-08-24T02:43:57.646Z,16.66
2022-08-24T02:44:57.628Z,16.50
2022-08-24T02:45:58.630Z,16.34
2022-08-24T02:46:57.610Z,16.24
2022-08-24T02:47:57.612Z,16.11
2022-08-24T02:49:10.162Z,16.05
2022-08-24T02:49:57.617Z,16.12
2022-08-24T02:50:57.548Z,16.27
2022-08-24T02:51:57.582Z,16.39
2022-08-24T02:52:57.564Z,16.50
2022-08-24T02:53:57.537Z,16.60
2022-08-24T02:54:57.479Z,16.64
2022-08-24T02:55:57.525Z,16.68
2022-08-24T02:56:57.470Z,16.76
2022-08-24T02:57:57.508Z,16.85
2022-08-24T02:58:57.442Z,16.94
2022-08-24T02:59:57.429Z,17.03
2022-08-24T03:00:57.449Z,17.11
2022-08-24T03:01:57.472Z,17.14
2022-08-24T03:02:57.528Z,17.15
2022-08-24T03:03:57.406Z,17.16
2022-08-24T03:04:57.382Z,17.22
2022-08-24T03:05:57.364Z,17.25
2022-08-24T03:06:57.345Z,17.30
2022-08-24T03:07:57.320Z,17.31
2022-08-24T03:08:57.368Z,17.31
2022-08-24T03:09:57.297Z,17.30
2022-08-24T03:10:57.333Z,17.28
2022-08-24T03:11:57.281Z,17.25
2022-08-24T03:12:58.854Z,17.22
2022-08-24T03:13:57.254Z,17.22
2022-08-24T03:14:57.231Z,17.11
2022-08-24T03:15:57.353Z,16.96
2022-08-24T03:16:57.204Z,16.76
2022-08-24T03:17:57.211Z,16.56
2022-08-24T03:18:57.185Z,16.35
2022-08-24T03:19:57.166Z,16.25
2022-08-24T03:20:57.176Z,16.28
2022-08-24T03:21:57.138Z,16.39
2022-08-24T03:22:57.274Z,16.52
2022-08-24T03:23:57.142Z,16.61
2022-08-24T03:24:57.113Z,16.67
2022-08-24T03:25:57.099Z,16.70
2022-08-24T03:26:57.066Z,16.73
2022-08-24T03:27:57.054Z,16.73
2022-08-24T03:28:57.042Z,16.73
2022-08-24T03:29:57.135Z,16.73
2022-08-24T03:30:57.081Z,16.75
2022-08-24T03:31:57.014Z,16.82
2022-08-24T03:32:57.100Z,16.88
2022-08-24T03:33:56.979Z,16.96
2022-08-24T03:34:56.983Z,17.01
2022-08-24T03:35:56.964Z,17.06
2022-08-24T03:36:56.942Z,17.01
2022-08-24T03:37:56.934Z,16.86
2022-08-24T03:38:56.942Z,16.73
2022-08-24T03:39:56.972Z,16.67
2022-08-24T03:40:56.878Z,16.66
2022-08-24T03:41:56.878Z,16.73
2022-08-24T03:42:57.151Z,16.79
2022-08-24T03:43:56.871Z,16.83
2022-08-24T03:44:56.822Z,16.86
2022-08-24T03:45:56.841Z,16.82
2022-08-24T03:46:56.802Z,16.79
2022-08-24T03:47:56.795Z,16.76
2022-08-24T03:48:56.804Z,16.71
2022-08-24T03:49:56.793Z,16.63
2022-08-24T03:50:56.764Z,16.52
2022-08-24T03:51:56.735Z,16.43
2022-08-24T03:52:56.734Z,16.41
2022-08-24T03:53:56.715Z,16.41
2022-08-24T03:54:56.728Z,16.42
2022-08-24T03:55:56.683Z,16.45
2022-08-24T03:56:56.662Z,16.50
2022-08-24T03:57:56.650Z,16.57
2022-08-24T03:58:56.666Z,16.64
2022-08-24T03:59:56.680Z,16.71
2022-08-24T04:00:56.657Z,16.73
2022-08-24T04:01:56.639Z,16.71
2022-08-24T04:02:56.612Z,16.71
2022-08-24T04:03:56.590Z,16.70
2022-08-24T04:04:56.591Z,16.67
2022-08-24T04:05:56.571Z,16.57
2022-08-24T04:06:56.548Z,16.48
2022-08-24T04:07:56.535Z,16.42
2022-08-24T04:08:56.516Z,16.35
2022-08-24T04:09:56.510Z,16.35
2022-08-24T04:10:56.487Z,16.33
2022-08-24T04:11:56.475Z,16.30
2022-08-24T04:12:56.501Z,16.25
2022-08-24T04:13:56.488Z,16.20
2022-08-24T04:14:56.439Z,16.11
2022-08-24T04:15:56.429Z,16.07
2022-08-24T04:16:57.652Z,16.07
2022-08-24T04:17:56.404Z,16.04
2022-08-24T04:18:56.411Z,16.02
2022-08-24T04:19:56.391Z,16.08
2022-08-24T04:20:56.362Z,16.17
2022-08-24T04:21:56.356Z,16.25
2022-08-24T04:22:56.341Z,16.33
2022-08-24T04:23:56.316Z,16.34
2022-08-24T04:24:56.340Z,16.30
2022-08-24T04:25:56.328Z,16.30
2022-08-24T04:26:56.271Z,16.34
2022-08-24T04:27:56.279Z,16.41
2022-08-24T04:28:56.255Z,16.41
2022-08-24T04:29:56.256Z,16.41
2022-08-24T04:30:56.221Z,16.38
2022-08-24T04:31:56.279Z,16.42
2022-08-24T04:32:56.219Z,16.46
2022-08-24T04:33:56.196Z,16.52
2022-08-24T04:34:56.209Z,16.57
2022-08-24T04:35:56.205Z,16.57
2022-08-24T04:36:56.157Z,16.53
2022-08-24T04:37:56.163Z,16.49
2022-08-24T04:38:56.119Z,16.43
2022-08-24T04:39:56.174Z,16.33
2022-08-24T04:40:56.090Z,16.27
2022-08-24T04:41:56.099Z,16.27
2022-08-24T04:42:56.104Z,16.30
2022-08-24T04:43:56.060Z,16.34
2022-08-24T04:44:56.034Z,16.33
2022-08-24T04:45:56.099Z,16.38
2022-08-24T04:46:56.040Z,16.38
2022-08-24T04:47:56.088Z,16.33
2022-08-24T04:48:55.990Z,16.30
2022-08-24T04:49:55.970Z,16.27
2022-08-24T04:50:55.964Z,16.28
2022-08-24T04:51:55.949Z,16.31
2022-08-24T04:52:55.976Z,16.38
2022-08-24T04:53:55.921Z,16.35
2022-08-24T04:54:55.939Z,16.35
2022-08-24T04:55:55.918Z,16.41
2022-08-24T04:56:55.885Z,16.45
2022-08-24T04:57:55.892Z,16.49
2022-08-24T04:58:55.868Z,16.57
2022-08-24T04:59:55.869Z,16.64
2022-08-24T05:00:55.856Z,16.68
2022-08-24T05:01:55.885Z,16.67
2022-08-24T05:02:55.793Z,16.68
2022-08-24T05:03:55.812Z,16.71
2022-08-24T05:04:55.805Z,16.71
2022-08-24T05:05:55.760Z,16.64
2022-08-24T05:06:55.751Z,16.58
2022-08-24T05:07:56.705Z,16.52
2022-08-24T05:08:55.737Z,16.52
2022-08-24T05:09:55.751Z,16.49
2022-08-24T05:10:55.751Z,16.46
2022-08-24T05:11:55.707Z,16.46
2022-08-24T05:12:55.670Z,16.48
2022-08-24T05:13:55.672Z,16.49
2022-08-24T05:14:55.675Z,16.48
2022-08-24T05:15:55.727Z,16.42
2022-08-24T05:16:55.681Z,16.38
2022-08-24T05:17:55.641Z,16.34
2022-08-24T05:18:55.610Z,16.39
2022-08-24T05:19:55.579Z,16.43
2022-08-24T05:20:55.585Z,16.49
2022-08-24T05:21:55.556Z,16.53
2022-08-24T05:22:56.799Z,16.58
2022-08-24T05:23:55.555Z,16.60
2022-08-24T05:24:55.511Z,16.64
2022-08-24T05:25:55.487Z,16.71
2022-08-24T05:26:55.525Z,16.75
2022-08-24T05:27:55.491Z,16.81
2022-08-24T05:28:55.487Z,16.83
2022-08-24T05:29:55.463Z,16.86
2022-08-24T05:30:55.448Z,16.91
2022-08-24T05:31:55.428Z,16.96
2022-08-24T05:32:55.422Z,17.01
2022-08-24T05:33:55.399Z,17.04
2022-08-24T05:34:55.373Z,17.04
2022-08-24T05:35:55.376Z,17.07
2022-08-24T05:36:55.386Z,17.07
2022-08-24T05:37:55.366Z,17.12
2022-08-24T05:38:55.333Z,17.15
2022-08-24T05:39:55.380Z,17.14
2022-08-24T05:40:55.297Z,17.16
2022-08-24T05:41:55.297Z,17.19
2022-08-24T05:42:55.302Z,17.21
2022-08-24T05:43:55.271Z,17.22
2022-08-24T05:44:55.260Z,17.26
2022-08-24T05:45:55.239Z,17.25
2022-08-24T05:46:55.323Z,17.23
2022-08-24T05:47:55.216Z,17.23
2022-08-24T05:48:55.212Z,17.23
2022-08-24T05:49:55.208Z,17.21
2022-08-24T05:50:55.168Z,17.16
2022-08-24T05:51:55.238Z,17.14
2022-08-24T05:52:55.132Z,17.12
2022-08-24T05:53:55.114Z,17.11
2022-08-24T05:54:55.190Z,17.08
2022-08-24T05:55:55.108Z,17.06
2022-08-24T05:56:55.100Z,17.00
2022-08-24T05:57:55.087Z,16.91
2022-08-24T05:58:55.114Z,16.86
2022-08-24T05:59:55.091Z,16.85
2022-08-24T06:00:55.048Z,16.85
2022-08-24T06:01:55.134Z,16.85
2022-08-24T06:02:55.136Z,16.86
2022-08-24T06:03:55.017Z,16.88
2022-08-24T06:04:55.022Z,16.88
2022-08-24T06:05:55.091Z,16.91
2022-08-24T06:06:54.953Z,16.93
2022-08-24T06:07:54.932Z,16.96
2022-08-24T06:08:54.923Z,16.97
2022-08-24T06:09:54.960Z,16.97
2022-08-24T06:10:54.928Z,16.97
2022-08-24T06:11:54.896Z,16.97
2022-08-24T06:12:54.912Z,16.98
2022-08-24T06:13:59.191Z,16.97
2022-08-24T06:14:54.871Z,17.01
2022-08-24T06:16:17.806Z,17.03
2022-08-24T06:16:54.944Z,17.06
2022-08-24T06:17:54.839Z,17.14
2022-08-24T06:18:54.804Z,17.16
2022-08-24T06:19:54.832Z,17.18
2022-08-24T06:20:57.201Z,17.22
2022-08-24T06:21:54.770Z,17.25
2022-08-24T06:22:54.753Z,17.31
2022-08-24T06:23:54.727Z,17.37
2022-08-24T06:24:54.748Z,17.40
2022-08-24T06:25:54.702Z,17.41
2022-08-24T06:26:54.689Z,17.49
2022-08-24T06:27:54.724Z,17.52
2022-08-24T06:28:54.656Z,17.55
2022-08-24T06:29:54.674Z,17.59
2022-08-24T06:30:54.672Z,17.64
2022-08-24T06:31:56.151Z,17.70
2022-08-24T06:32:54.611Z,17.70
2022-08-24T06:33:54.599Z,17.71
2022-08-24T06:34:54.619Z,17.72
2022-08-24T06:35:54.635Z,17.77
2022-08-24T06:36:54.560Z,17.79
2022-08-24T06:37:54.534Z,17.84
2022-08-24T06:38:54.529Z,17.89
2022-08-24T06:39:55.995Z,17.96
2022-08-24T06:40:54.570Z,17.99
2022-08-24T06:41:54.527Z,18.02
2022-08-24T06:42:54.549Z,18.05
2022-08-24T06:43:54.459Z,18.10
2022-08-24T06:44:54.435Z,18.15
2022-08-24T06:45:54.472Z,18.18
2022-08-24T06:46:54.455Z,18.25
2022-08-24T06:47:54.435Z,18.29
2022-08-24T06:48:54.432Z,18.35
2022-08-24T06:49:54.371Z,18.39
2022-08-24T06:50:54.419Z,18.45
2022-08-24T06:51:54.370Z,18.48
2022-08-24T06:52:54.370Z,18.52
2022-08-24T06:53:54.337Z,18.57
2022-08-24T06:54:54.314Z,18.62
2022-08-24T06:55:54.310Z,18.66
2022-08-24T06:56:54.339Z,18.70
2022-08-24T06:57:54.339Z,18.75
2022-08-24T06:58:54.272Z,18.78
2022-08-24T06:59:54.278Z,18.84
2022-08-24T07:00:54.227Z,18.87
2022-08-24T07:01:54.326Z,18.91
2022-08-24T07:02:54.281Z,18.98
2022-08-24T07:03:54.358Z,19.04
2022-08-24T07:04:54.184Z,19.06
2022-08-24T07:05:54.191Z,19.06
2022-08-24T07:06:54.159Z,19.08
2022-08-24T07:07:54.188Z,19.11
2022-08-24T07:08:54.111Z,19.18
2022-08-24T07:09:54.147Z,19.21
2022-08-24T07:10:54.118Z,19.23
2022-08-24T07:11:54.088Z,19.26
2022-08-24T07:12:54.061Z,19.28
2022-08-24T07:13:54.057Z,19.36
2022-08-24T07:14:54.253Z,19.39
2022-08-24T07:15:54.089Z,19.41
2022-08-24T07:16:54.072Z,19.44
2022-08-24T07:17:54.021Z,19.48
2022-08-24T07:18:54.026Z,19.55
2022-08-24T07:19:53.993Z,19.61
2022-08-24T07:20:53.959Z,19.63
2022-08-24T07:21:54.619Z,19.69
2022-08-24T07:22:54.378Z,19.74
2022-08-24T07:23:53.925Z,19.77
2022-08-24T07:24:53.950Z,19.80
2022-08-24T07:25:56.069Z,19.86
2022-08-24T07:26:54.067Z,19.92
2022-08-24T07:27:53.875Z,19.99
2022-08-24T07:28:53.969Z,20.06
2022-08-24T07:30:16.112Z,20.11
2022-08-24T07:30:53.851Z,20.18
2022-08-24T07:31:53.824Z,20.21
2022-08-24T07:32:53.830Z,20.26
2022-08-24T07:33:53.808Z,20.33
2022-08-24T07:34:53.776Z,20.38
2022-08-24T07:35:56.315Z,20.41
2022-08-24T07:36:53.744Z,20.47
2022-08-24T07:37:54.045Z,20.50
2022-08-24T07:38:53.792Z,20.55
2022-08-24T07:39:53.755Z,20.61
2022-08-24T07:41:20.193Z,20.72
2022-08-24T07:42:11.990Z,20.80
2022-08-24T07:42:53.708Z,20.91
2022-08-24T07:43:53.672Z,20.99
2022-08-24T07:44:53.657Z,21.09
2022-08-24T07:45:53.761Z,21.16
2022-08-24T07:46:53.641Z,21.19
2022-08-24T07:49:04.965Z,21.38
2022-08-24T07:49:53.594Z,21.52
2022-08-24T07:50:53.569Z,21.62
2022-08-24T07:51:53.556Z,21.69
2022-08-24T07:52:53.555Z,21.79
2022-08-24T07:53:54.453Z,21.84
2022-08-24T07:54:53.518Z,21.98
2022-08-24T07:55:53.481Z,22.05
2022-08-24T07:56:53.491Z,22.15
2022-08-24T07:57:53.504Z,22.28
2022-08-24T07:58:54.604Z,22.39
2022-08-24T07:59:53.455Z,22.49
2022-08-24T08:00:53.433Z,22.60
2022-08-24T08:01:53.439Z,22.65
2022-08-24T08:02:53.831Z,22.72
2022-08-24T08:03:53.395Z,22.75
2022-08-24T08:04:53.507Z,22.76
2022-08-24T08:05:53.353Z,22.79
2022-08-24T08:06:53.411Z,22.86
2022-08-24T08:07:53.348Z,22.98
2022-08-24T08:08:53.306Z,23.07
2022-08-24T08:09:53.368Z,23.15
2022-08-24T08:10:53.292Z,23.23
2022-08-24T08:11:53.431Z,23.28
2022-08-24T08:12:53.292Z,23.33
2022-08-24T08:13:53.311Z,23.40
2022-08-24T08:14:53.272Z,23.43
2022-08-24T08:15:55.603Z,23.50
2022-08-24T08:16:53.228Z,23.53
2022-08-24T08:17:56.074Z,23.61
2022-08-24T08:19:09.295Z,23.69
2022-08-24T08:19:53.244Z,23.76
2022-08-24T08:20:53.201Z,23.83
2022-08-24T08:21:53.171Z,23.87
2022-08-24T08:22:53.171Z,23.93
2022-08-24T08:23:53.126Z,23.93
2022-08-24T08:24:53.113Z,23.97
2022-08-24T08:25:53.190Z,24.05
2022-08-24T08:26:53.107Z,24.09
2022-08-24T08:27:53.199Z,24.13
2022-08-24T08:28:53.052Z,24.24
2022-08-24T08:29:53.039Z,24.37
2022-08-24T08:30:53.063Z,24.43
2022-08-24T08:31:53.020Z,24.49
2022-08-24T08:32:53.019Z,24.55
2022-08-24T08:33:52.995Z,24.60
2022-08-24T08:34:52.974Z,24.76
2022-08-24T08:35:52.990Z,24.83
2022-08-24T08:36:52.941Z,24.90
2022-08-24T08:37:52.957Z,25.03
2022-08-24T08:38:52.955Z,25.13
2022-08-24T08:39:52.993Z,25.24
2022-08-24T08:40:52.895Z,25.18
2022-08-24T08:41:52.983Z,25.20
2022-08-24T08:42:52.896Z,25.27
2022-08-24T08:43:52.866Z,25.33
2022-08-24T08:44:52.898Z,25.39
2022-08-24T08:45:52.892Z,25.46
2022-08-24T08:46:52.850Z,25.51
2022-08-24T08:47:52.853Z,25.58
2022-08-24T08:48:52.790Z,25.70
2022-08-24T08:49:52.834Z,25.79
2022-08-24T08:50:52.775Z,25.80
2022-08-24T08:51:52.783Z,25.80
2022-08-24T08:52:52.784Z,25.80
2022-08-24T08:53:52.758Z,25.91
2022-08-24T08:54:52.722Z,25.95
2022-08-24T08:55:53.426Z,26.02
2022-08-24T08:56:56.079Z,26.06
2022-08-24T08:57:52.700Z,26.06
2022-08-24T08:58:57.620Z,26.13
2022-08-24T08:59:52.737Z,26.20
2022-08-24T09:00:52.677Z,26.36
2022-08-24T09:01:52.691Z,26.48
2022-08-24T09:02:52.651Z,26.63
2022-08-24T09:03:52.702Z,26.72
2022-08-24T09:04:52.729Z,26.73
2022-08-24T09:05:52.596Z,26.80
2022-08-24T09:06:52.576Z,26.87
2022-08-24T09:07:52.561Z,26.91
2022-08-24T09:08:52.537Z,26.87
2022-08-24T09:09:52.520Z,26.99
2022-08-24T09:10:52.524Z,27.17
2022-08-24T09:11:52.490Z,27.25
2022-08-24T09:12:52.494Z,27.28
2022-08-24T09:13:52.497Z,27.28
2022-08-24T09:14:52.460Z,27.27
2022-08-24T09:15:57.814Z,27.28
2022-08-24T09:16:52.499Z,27.25
2022-08-24T09:17:52.437Z,27.28
2022-08-24T09:18:52.406Z,27.27
2022-08-24T09:19:52.399Z,27.39
2022-08-24T09:20:52.434Z,27.51
2022-08-24T09:21:54.430Z,27.65
2022-08-24T09:22:52.351Z,27.82
2022-08-24T09:23:52.353Z,27.96
2022-08-24T09:24:52.354Z,28.18
2022-08-24T09:25:52.314Z,28.34
2022-08-24T09:26:52.315Z,28.43
2022-08-24T09:27:52.306Z,28.55
2022-08-24T09:28:52.313Z,28.67
2022-08-24T09:29:52.277Z,28.70
2022-08-24T09:30:52.279Z,28.81
2022-08-24T09:31:52.269Z,28.74
2022-08-24T09:32:52.249Z,28.61
2022-08-24T09:33:52.247Z,28.54
2022-08-24T09:34:52.189Z,28.58
2022-08-24T09:35:52.175Z,28.67
2022-08-24T09:36:52.211Z,28.74
2022-08-24T09:37:52.183Z,28.73
2022-08-24T09:38:52.377Z,28.74
2022-08-24T09:39:52.633Z,28.76
2022-08-24T09:40:52.156Z,28.81
2022-08-24T09:41:52.123Z,28.98
2022-08-24T09:42:52.099Z,29.21
2022-08-24T09:43:52.087Z,29.36
2022-08-24T09:44:52.104Z,29.48
2022-08-24T09:45:52.268Z,29.61
2022-08-24T09:46:52.066Z,29.74
2022-08-24T09:47:52.038Z,29.68
2022-08-24T09:48:52.020Z,29.60
2022-08-24T09:49:52.020Z,29.46
2022-08-24T09:50:52.123Z,29.49
2022-08-24T09:51:51.985Z,29.57
2022-08-24T09:52:52.011Z,29.61
2022-08-24T09:53:51.999Z,29.63
2022-08-24T09:54:51.943Z,29.58
2022-08-24T09:55:51.969Z,29.68
2022-08-24T09:56:59.873Z,29.73
2022-08-24T09:58:00.488Z,29.78
2022-08-24T09:58:51.908Z,29.83
2022-08-24T09:59:51.874Z,29.83
2022-08-24T10:00:51.912Z,29.73
2022-08-24T10:01:51.996Z,29.65
2022-08-24T10:02:51.838Z,29.64
2022-08-24T10:03:51.849Z,29.70
2022-08-24T10:04:51.909Z,29.67
2022-08-24T10:05:51.911Z,29.71
2022-08-24T10:06:51.822Z,29.89
2022-08-24T10:07:51.776Z,30.08
2022-08-24T10:08:51.792Z,30.32
2022-08-24T10:09:51.750Z,30.42
2022-08-24T10:10:51.768Z,30.38
2022-08-24T10:11:51.782Z,30.24
2022-08-24T10:12:56.009Z,30.15
2022-08-24T10:13:51.694Z,30.20
2022-08-24T10:14:51.716Z,30.32
2022-08-24T10:15:51.714Z,30.39
2022-08-24T10:16:51.748Z,30.49
2022-08-24T10:17:51.652Z,30.54
2022-08-24T10:18:51.646Z,30.60
2022-08-24T10:19:51.626Z,30.64
2022-08-24T10:20:51.610Z,30.57
2022-08-24T10:21:51.609Z,30.37
2022-08-24T10:22:51.642Z,30.19
2022-08-24T10:23:51.589Z,30.16
2022-08-24T10:24:51.561Z,30.10
2022-08-24T10:25:51.557Z,30.16
2022-08-24T10:26:51.543Z,30.23
2022-08-24T10:27:51.533Z,30.00
2022-08-24T10:28:51.573Z,29.86
2022-08-24T10:29:51.482Z,29.89
2022-08-24T10:30:51.491Z,30.04
2022-08-24T10:31:51.504Z,30.00
2022-08-24T10:32:51.440Z,30.05
2022-08-24T10:33:51.454Z,30.20
2022-08-24T10:34:51.428Z,30.38
2022-08-24T10:35:51.411Z,30.46
2022-08-24T10:36:51.498Z,30.53
2022-08-24T10:37:51.412Z,30.42
2022-08-24T10:38:51.431Z,30.29
2022-08-24T10:39:51.396Z,30.32
2022-08-24T10:40:51.416Z,30.32
2022-08-24T10:41:51.349Z,30.31
2022-08-24T10:42:51.320Z,30.46
2022-08-24T10:43:51.296Z,30.60
2022-08-24T10:44:51.332Z,30.58
2022-08-24T10:45:51.318Z,30.42
2022-08-24T10:46:56.594Z,30.45
2022-08-24T10:47:51.303Z,30.47
2022-08-24T10:48:51.272Z,30.55
2022-08-24T10:49:51.262Z,30.47
2022-08-24T10:50:51.243Z,30.42
2022-08-24T10:51:51.201Z,30.45
2022-08-24T10:52:51.178Z,30.51
2022-08-24T10:53:51.185Z,30.62
2022-08-24T10:54:51.185Z,30.57
2022-08-24T10:55:51.182Z,30.65
2022-08-24T10:56:51.175Z,30.75
2022-08-24T10:57:51.120Z,30.76
2022-08-24T10:58:51.110Z,30.73
2022-08-24T10:59:51.098Z,30.75
2022-08-24T11:00:51.184Z,30.98
2022-08-24T11:01:51.104Z,31.19
2022-08-24T11:02:51.069Z,31.17
2022-08-24T11:03:51.788Z,31.07
2022-08-24T11:04:51.091Z,30.80
2022-08-24T11:05:51.065Z,30.58
2022-08-24T11:06:50.997Z,30.53
2022-08-24T11:07:50.997Z,30.75
2022-08-24T11:08:51.028Z,31.06
2022-08-24T11:09:51.000Z,31.19
2022-08-24T11:10:50.967Z,31.07
2022-08-24T11:11:50.935Z,31.02
2022-08-24T11:12:51.234Z,31.09
2022-08-24T11:13:50.906Z,31.21
2022-08-24T11:14:50.903Z,31.34
2022-08-24T11:15:50.914Z,31.48
2022-08-24T11:16:54.573Z,31.48
2022-08-24T11:17:50.864Z,31.26
2022-08-24T11:18:50.852Z,31.07
2022-08-24T11:19:50.825Z,31.07
2022-08-24T11:20:50.850Z,31.09
2022-08-24T11:21:50.859Z,31.19
2022-08-24T11:22:50.801Z,31.31
2022-08-24T11:23:50.791Z,31.44
2022-08-24T11:24:50.782Z,31.54
2022-08-24T11:25:50.788Z,31.62
2022-08-24T11:26:52.196Z,31.72
2022-08-24T11:27:50.731Z,31.53
2022-08-24T11:28:50.715Z,31.46
2022-08-24T11:29:50.758Z,31.19
2022-08-24T11:30:50.764Z,30.97
2022-08-24T11:31:50.781Z,30.88
2022-08-24T11:32:50.688Z,31.01
2022-08-24T11:33:50.654Z,31.07
2022-08-24T11:34:50.650Z,31.07
2022-08-24T11:35:50.763Z,31.07
2022-08-24T11:36:50.624Z,31.12
2022-08-24T11:37:50.645Z,30.97
2022-08-24T11:38:50.584Z,30.86
2022-08-24T11:39:50.650Z,30.84
2022-08-24T11:40:50.621Z,30.83
2022-08-24T11:41:50.573Z,30.86
2022-08-24T11:42:50.551Z,30.98
2022-08-24T11:43:50.522Z,30.95
2022-08-24T11:44:50.518Z,31.10
2022-08-24T11:45:50.490Z,31.17
2022-08-24T11:46:50.661Z,31.35
2022-08-24T11:47:50.465Z,31.34
2022-08-24T11:48:50.471Z,31.25
2022-08-24T11:49:50.449Z,31.29
2022-08-24T11:50:50.447Z,31.38
2022-08-24T11:51:50.460Z,31.47
2022-08-24T11:52:50.396Z,31.39
2022-08-24T11:53:50.403Z,31.36
2022-08-24T11:54:50.375Z,31.53
2022-08-24T11:55:51.720Z,31.68
2022-08-24T11:56:50.355Z,31.72
2022-08-24T11:57:50.633Z,31.73
2022-08-24T11:58:50.365Z,31.80
2022-08-24T11:59:50.316Z,31.85
2022-08-24T12:00:50.344Z,31.89
2022-08-24T12:01:50.398Z,31.92
2022-08-24T12:02:50.400Z,31.93
2022-08-24T12:03:52.586Z,31.81
2022-08-24T12:04:50.256Z,31.72
2022-08-24T12:05:50.285Z,31.51
2022-08-24T12:06:50.246Z,31.47
2022-08-24T12:07:51.001Z,31.50
2022-08-24T12:08:50.229Z,31.53
2022-08-24T12:09:50.233Z,31.54
2022-08-24T12:10:50.186Z,31.63
2022-08-24T12:11:50.224Z,31.69
2022-08-24T12:12:50.186Z,31.80
2022-08-24T12:13:50.194Z,31.80
2022-08-24T12:14:50.224Z,31.70
2022-08-24T12:15:52.262Z,31.43
2022-08-24T12:16:50.239Z,31.35
2022-08-24T12:17:50.142Z,31.36
2022-08-24T12:18:50.080Z,31.44
2022-08-24T12:19:50.076Z,31.46
2022-08-24T12:20:50.085Z,31.56
2022-08-24T12:21:50.137Z,31.70
2022-08-24T12:22:50.196Z,31.75
2022-08-24T12:23:50.065Z,31.65
2022-08-24T12:24:50.099Z,31.56
2022-08-24T12:25:49.968Z,31.69
2022-08-24T12:26:50.043Z,31.69
2022-08-24T12:27:50.041Z,31.72
2022-08-24T12:28:54.091Z,31.78
2022-08-24T12:29:50.121Z,31.76
2022-08-24T12:30:49.972Z,31.85
2022-08-24T12:31:50.009Z,32.01
2022-08-24T12:32:49.968Z,32.06
2022-08-24T12:33:49.909Z,32.04
2022-08-24T12:34:50.167Z,31.91
2022-08-24T12:35:49.884Z,31.81
2022-08-24T12:36:49.882Z,31.81
2022-08-24T12:37:49.862Z,31.88
2022-08-24T12:38:49.930Z,31.95
2022-08-24T12:39:49.935Z,31.95
2022-08-24T12:40:49.838Z,32.06
2022-08-24T12:41:49.847Z,32.14
2022-08-24T12:42:52.242Z,32.18
2022-08-24T12:43:49.811Z,32.08
2022-08-24T12:44:49.779Z,32.00
2022-08-24T12:45:49.749Z,31.93
2022-08-24T12:46:49.782Z,31.96
2022-08-24T12:47:49.721Z,32.01
2022-08-24T12:48:49.682Z,31.85
2022-08-24T12:49:49.680Z,31.92
2022-08-24T12:50:49.644Z,31.93
2022-08-24T12:51:49.718Z,31.78
2022-08-24T12:52:49.657Z,31.62
2022-08-24T12:53:49.619Z,31.50